createdAt,value
2019-02-20T00:00:43.000Z,98744.63
2019-02-20T00:03:14.853Z,98748.14
2019-02-20T00:05:49.712Z,98749.38
2019-02-20T00:08:21.907Z,98743.57
2019-02-20T00:10:54.759Z,98753.02
2019-02-20T00:13:29.538Z,98754.84
2019-02-20T00:16:01.370Z,98749.69
2019-02-20T00:18:35.599Z,98751.53
2019-02-20T00:21:07.453Z,98754.23
2019-02-20T00:23:39.283Z,98753.45
2019-02-20T00:26:11.108Z,98761.23
2019-02-20T00:28:42.963Z,98758.78
2019-02-20T00:31:15.960Z,98756.30
2019-02-20T00:33:47.825Z,98755.92
2019-02-20T00:36:24.381Z,98761.56
2019-02-20T00:38:57.910Z,98759.45
2019-02-20T00:41:29.730Z,98758.58
2019-02-20T00:44:15.368Z,98756.55
2019-02-20T00:47:27.115Z,98757.38
2019-02-20T00:49:59.057Z,98760.00
2019-02-20T00:52:50.147Z,98762.20
2019-02-20T00:55:25.139Z,98764.07
2019-02-20T00:57:56.978Z,98765.53
2019-02-20T01:00:30.580Z,98773.34
2019-02-20T01:03:03.979Z,98775.91
2019-02-20T01:05:35.820Z,98774.54
2019-02-20T01:08:09.051Z,98778.90
2019-02-20T01:10:43.458Z,98774.63
2019-02-20T01:13:18.120Z,98776.45
2019-02-20T01:15:50.000Z,98773.42
2019-02-20T01:18:21.845Z,98781.10
2019-02-20T01:20:56.116Z,98779.36
2019-02-20T01:23:29.689Z,98780.31
2019-02-20T01:26:01.538Z,98780.65
2019-02-20T01:28:36.460Z,98783.76
2019-02-20T01:31:09.370Z,98777.86
2019-02-20T01:33:42.421Z,98780.02
2019-02-20T01:36:14.239Z,98778.65
2019-02-20T01:38:46.110Z,98772.79
2019-02-20T01:41:19.107Z,98775.28
2019-02-20T01:43:53.973Z,98770.43
2019-02-20T01:46:29.002Z,98766.73
2019-02-20T01:49:00.876Z,98763.82
2019-02-20T01:51:32.726Z,98763.86
2019-02-20T01:54:06.583Z,98756.75
2019-02-20T01:56:38.451Z,98762.41
2019-02-20T01:59:12.758Z,98756.84
2019-02-20T02:01:44.586Z,98758.08
2019-02-20T02:04:16.522Z,98760.20
2019-02-20T02:06:48.395Z,98755.17
2019-02-20T02:09:20.247Z,98756.95
2019-02-20T02:11:52.079Z,98766.47
2019-02-20T02:14:23.951Z,98770.33
2019-02-20T02:17:00.332Z,98760.23
2019-02-20T02:19:38.789Z,98769.31
2019-02-20T02:22:13.487Z,98777.48
2019-02-20T02:24:45.551Z,98774.99
2019-02-20T02:27:17.427Z,98769.47
2019-02-20T02:29:50.411Z,98769.89
2019-02-20T02:32:22.317Z,98765.34
2019-02-20T02:34:54.175Z,98767.95
2019-02-20T02:37:26.076Z,98761.56
2019-02-20T02:39:57.924Z,98754.80
2019-02-20T02:42:29.807Z,98750.94
2019-02-20T02:45:01.677Z,98746.73
2019-02-20T02:47:33.556Z,98751.87
2019-02-20T02:50:05.681Z,98745.03
2019-02-20T02:52:37.550Z,98749.88
2019-02-20T02:55:17.188Z,98749.01
2019-02-20T02:57:51.038Z,98749.88
2019-02-20T03:00:21.667Z,98747.38
2019-02-20T03:02:53.518Z,98752.98
2019-02-20T03:05:27.003Z,98752.53
2019-02-20T03:08:00.133Z,98752.03
2019-02-20T03:10:33.519Z,98745.56
2019-02-20T03:13:10.232Z,98743.98
2019-02-20T03:15:42.099Z,98744.39
2019-02-20T03:18:15.038Z,98745.53
2019-02-20T03:20:46.893Z,98741.70
2019-02-20T03:23:21.497Z,98739.59
2019-02-20T03:25:53.620Z,98748.25
2019-02-20T03:28:25.455Z,98748.29
2019-02-20T03:30:57.316Z,98753.39
2019-02-20T03:33:29.145Z,98747.42
2019-02-20T03:36:01.047Z,98746.59
2019-02-20T03:38:32.905Z,98747.84
2019-02-20T03:41:04.796Z,98744.51
2019-02-20T03:43:36.611Z,98744.13
2019-02-20T03:46:09.746Z,98743.71
2019-02-20T03:48:41.618Z,98754.91
2019-02-20T03:51:13.423Z,98748.44
2019-02-20T03:53:51.411Z,98748.97
2019-02-20T03:56:18.840Z,98756.27
2019-02-20T03:58:50.799Z,98749.34
2019-02-20T04:01:22.612Z,98748.59
2019-02-20T04:03:54.453Z,98758.00
2019-02-20T04:06:26.300Z,98761.17
2019-02-20T04:08:59.215Z,98756.63
2019-02-20T04:11:31.082Z,98757.36
2019-02-20T04:14:05.506Z,98761.21
2019-02-20T04:16:37.368Z,98757.50
2019-02-20T04:19:09.246Z,98760.45
2019-02-20T04:21:42.261Z,98755.58
2019-02-20T04:24:14.146Z,98763.30
2019-02-20T04:26:45.965Z,98764.09
2019-02-20T04:29:17.813Z,98761.03
2019-02-20T04:31:49.639Z,98760.20
2019-02-20T04:34:21.490Z,98760.23
2019-02-20T04:36:53.351Z,98759.78
2019-02-20T04:39:25.235Z,98759.89
2019-02-20T04:41:57.057Z,98765.34
2019-02-20T04:44:29.977Z,98768.70
2019-02-20T04:47:01.809Z,98775.90
2019-02-20T04:49:33.688Z,98775.44
2019-02-20T04:52:05.494Z,98774.95
2019-02-20T04:54:37.378Z,98776.77
2019-02-20T04:57:09.211Z,98775.20
2019-02-20T04:59:42.313Z,98776.98
2019-02-20T05:02:14.135Z,98779.17
2019-02-20T05:04:45.962Z,98778.86
2019-02-20T05:07:21.962Z,98774.25
2019-02-20T05:09:57.356Z,98776.44
2019-02-20T05:12:29.197Z,98770.50
2019-02-20T05:15:01.062Z,98773.97
2019-02-20T05:17:32.898Z,98774.87
2019-02-20T05:20:05.060Z,98775.78
2019-02-20T05:22:37.110Z,98768.55
2019-02-20T05:25:08.949Z,98777.41
2019-02-20T05:27:40.797Z,98769.28
2019-02-20T05:30:12.637Z,98772.75
2019-02-20T05:32:44.460Z,98778.20
2019-02-20T05:35:22.354Z,98783.03
2019-02-20T05:37:54.194Z,98782.96
2019-02-20T05:40:26.044Z,98774.48
2019-02-20T05:42:57.888Z,98775.97
2019-02-20T05:45:29.722Z,98774.58
2019-02-20T05:48:01.563Z,98785.23
2019-02-20T05:50:33.404Z,98780.89
2019-02-20T05:53:05.261Z,98790.27
2019-02-20T05:55:37.154Z,98790.95
2019-02-20T05:58:09.109Z,98792.66
2019-02-20T06:00:40.949Z,98788.05
2019-02-20T06:03:12.792Z,98792.17
2019-02-20T06:05:44.625Z,98790.02
2019-02-20T06:08:18.139Z,98803.18
2019-02-20T06:10:50.019Z,98806.59
2019-02-20T06:13:23.034Z,98818.81
2019-02-20T06:15:56.545Z,98820.06
2019-02-20T06:18:28.390Z,98818.28
2019-02-20T06:21:00.242Z,98824.68
2019-02-20T06:23:32.063Z,98819.91
2019-02-20T06:26:06.650Z,98824.19
2019-02-20T06:28:40.141Z,98829.25
2019-02-20T06:31:15.021Z,98818.52
2019-02-20T06:33:46.867Z,98821.95
2019-02-20T06:36:18.820Z,98827.48
2019-02-20T06:38:53.732Z,98837.20
2019-02-20T06:41:27.261Z,98838.11
2019-02-20T06:43:59.106Z,98834.67
2019-02-20T06:46:30.938Z,98839.32
2019-02-20T06:49:02.762Z,98842.77
2019-02-20T06:51:34.616Z,98841.63
2019-02-20T06:54:09.205Z,98841.97
2019-02-20T06:56:47.019Z,98840.50
2019-02-20T06:59:18.903Z,98845.53
2019-02-20T07:01:50.779Z,98851.31
2019-02-20T07:04:25.710Z,98859.84
2019-02-20T07:07:26.856Z,98863.05
2019-02-20T07:11:25.786Z,98858.95
2019-02-20T07:14:38.853Z,98855.75
2019-02-20T07:18:15.311Z,98866.66
2019-02-20T07:21:38.373Z,98861.00
2019-02-20T07:24:42.871Z,98862.38
2019-02-20T07:28:13.022Z,98863.20
2019-02-20T07:30:44.887Z,98865.86
2019-02-20T07:33:21.738Z,98868.65
2019-02-20T07:35:53.589Z,98867.56
2019-02-20T07:38:25.484Z,98866.05
2019-02-20T07:41:00.544Z,98867.37
2019-02-20T07:43:30.990Z,98864.23
2019-02-20T07:46:02.855Z,98873.32
2019-02-20T07:48:45.430Z,98876.78
2019-02-20T07:51:19.311Z,98870.37
2019-02-20T07:53:50.810Z,98879.47
2019-02-20T07:56:24.132Z,98884.64
2019-02-20T07:58:55.714Z,98885.19
2019-02-20T08:01:27.576Z,98885.81
2019-02-20T08:03:59.135Z,98884.34
2019-02-20T08:06:39.952Z,98879.79
2019-02-20T08:09:13.534Z,98880.19
2019-02-20T08:11:45.400Z,98882.55
2019-02-20T08:14:18.095Z,98882.41
2019-02-20T08:16:52.928Z,98882.53
2019-02-20T08:19:24.566Z,98888.14
2019-02-20T08:21:57.409Z,98894.22
2019-02-20T08:24:32.066Z,98892.33
2019-02-20T08:27:02.286Z,98898.80
2019-02-20T08:29:38.789Z,98903.33
2019-02-20T08:32:11.563Z,98897.84
2019-02-20T08:34:43.153Z,98899.11
2019-02-20T08:37:14.707Z,98903.22
2019-02-20T08:39:48.583Z,98906.98
2019-02-20T08:42:29.316Z,98902.77
2019-02-20T08:45:00.908Z,98893.91
2019-02-20T08:47:32.528Z,98896.78
2019-02-20T08:50:04.231Z,98895.92
2019-02-20T08:52:37.410Z,98892.50
2019-02-20T08:55:10.638Z,98891.08
2019-02-20T08:57:42.128Z,98903.61
2019-02-20T09:00:16.148Z,98907.77
2019-02-20T09:02:50.734Z,98917.55
2019-02-20T09:05:22.334Z,98915.16
2019-02-20T09:07:56.747Z,98915.72
2019-02-20T09:10:28.323Z,98910.43
2019-02-20T09:13:03.133Z,98917.56
2019-02-20T09:15:35.793Z,98916.05
2019-02-20T09:18:08.352Z,98913.86
2019-02-20T09:20:41.532Z,98917.22
2019-02-20T09:23:13.113Z,98910.60
2019-02-20T09:25:44.683Z,98906.75
2019-02-20T09:28:17.324Z,98914.34
2019-02-20T09:30:51.486Z,98905.53
2019-02-20T09:33:23.060Z,98912.52
2019-02-20T09:35:54.637Z,98912.09
2019-02-20T09:38:26.234Z,98920.59
2019-02-20T09:40:57.767Z,98923.91
2019-02-20T09:43:29.351Z,98919.22
2019-02-20T09:46:01.977Z,98920.60
2019-02-20T09:48:33.593Z,98923.78
2019-02-20T09:51:05.144Z,98928.23
2019-02-20T09:53:36.771Z,98929.14
2019-02-20T09:56:08.406Z,98931.27
2019-02-20T09:58:43.180Z,98933.23
2019-02-20T10:01:14.768Z,98937.59
2019-02-20T10:03:46.385Z,98943.55
2019-02-20T10:06:17.948Z,98940.71
2019-02-20T10:08:49.617Z,98940.13
2019-02-20T10:11:22.461Z,98936.88
2019-02-20T10:13:54.047Z,98950.50
2019-02-20T10:16:25.652Z,98950.72
2019-02-20T10:18:57.245Z,98950.45
2019-02-20T10:21:28.936Z,98954.45
2019-02-20T10:24:00.558Z,98954.28
2019-02-20T10:26:33.431Z,98961.02
2019-02-20T10:29:05.181Z,98962.61
2019-02-20T10:31:36.749Z,98968.40
2019-02-20T10:34:08.342Z,98959.41
2019-02-20T10:36:39.972Z,98954.73
2019-02-20T10:39:11.580Z,98965.93
2019-02-20T10:41:43.136Z,98965.55
2019-02-20T10:44:14.699Z,98963.41
2019-02-20T10:46:46.298Z,98963.47
2019-02-20T10:49:17.871Z,98959.69
2019-02-20T10:51:49.497Z,98957.06
2019-02-20T10:54:21.062Z,98966.13
2019-02-20T10:56:52.635Z,98971.50
2019-02-20T10:59:24.196Z,98967.27
2019-02-20T11:01:56.103Z,98971.84
2019-02-20T11:04:27.701Z,98961.37
2019-02-20T11:06:59.278Z,98967.28
2019-02-20T11:09:31.908Z,98962.48
2019-02-20T11:12:03.908Z,98967.69
2019-02-20T11:14:35.676Z,98969.30
2019-02-20T11:17:08.345Z,98968.71
2019-02-20T11:19:39.901Z,98971.44
2019-02-20T11:22:11.501Z,98960.06
2019-02-20T11:24:43.066Z,98963.90
2019-02-20T11:27:14.686Z,98961.73
2019-02-20T11:29:46.267Z,98955.63
2019-02-20T11:32:17.859Z,98954.70
2019-02-20T11:34:49.448Z,98954.98
2019-02-20T11:37:23.369Z,98960.65
2019-02-20T11:39:56.022Z,98956.03
2019-02-20T11:42:27.624Z,98955.13
2019-02-20T11:44:59.176Z,98964.56
2019-02-20T11:47:30.769Z,98954.02
2019-02-20T11:50:03.518Z,98951.15
2019-02-20T11:52:38.280Z,98947.83
2019-02-20T11:55:08.866Z,98947.27
2019-02-20T11:57:40.629Z,98951.59
2019-02-20T12:00:13.139Z,98944.65
2019-02-20T12:02:44.703Z,98951.56
2019-02-20T12:05:17.920Z,98943.48
2019-02-20T12:07:49.601Z,98943.21
2019-02-20T12:10:21.265Z,98948.55
2019-02-20T12:12:52.849Z,98946.62
2019-02-20T12:15:24.433Z,98944.05
2019-02-20T12:17:55.984Z,98955.28
2019-02-20T12:20:28.085Z,98948.43
2019-02-20T12:22:59.630Z,98942.20
2019-02-20T12:25:31.255Z,98938.75
2019-02-20T12:28:02.821Z,98944.91
2019-02-20T12:30:34.469Z,98939.27
2019-02-20T12:33:06.133Z,98936.78
2019-02-20T12:35:37.710Z,98938.67
2019-02-20T12:38:09.284Z,98938.66
2019-02-20T12:40:40.883Z,98935.66
2019-02-20T12:43:12.456Z,98930.21
2019-02-20T12:45:44.048Z,98930.69
2019-02-20T12:48:15.911Z,98928.72
2019-02-20T12:50:47.567Z,98920.54
2019-02-20T12:53:19.165Z,98920.02
2019-02-20T12:55:58.910Z,98922.94
2019-02-20T12:58:30.729Z,98921.87
2019-02-20T13:01:02.764Z,98922.62
2019-02-20T13:03:36.676Z,98917.92
2019-02-20T13:06:08.491Z,98917.72
2019-02-20T13:08:40.106Z,98920.41
2019-02-20T13:11:11.696Z,98923.48
2019-02-20T13:13:43.548Z,98926.70
2019-02-20T13:16:15.234Z,98920.72
2019-02-20T13:18:48.144Z,98919.13
2019-02-20T13:21:19.738Z,98920.81
2019-02-20T13:23:51.313Z,98914.99
2019-02-20T13:26:22.891Z,98922.83
2019-02-20T13:28:59.718Z,98919.83
2019-02-20T13:31:31.340Z,98914.48
2019-02-20T13:34:02.881Z,98912.14
2019-02-20T13:36:34.433Z,98916.50
2019-02-20T13:39:07.030Z,98911.98
2019-02-20T13:41:40.586Z,98913.77
2019-02-20T13:44:13.875Z,98911.47
2019-02-20T13:46:48.227Z,98912.73
2019-02-20T13:49:19.907Z,98909.53
2019-02-20T13:51:51.532Z,98910.42
2019-02-20T13:54:23.133Z,98913.83
2019-02-20T13:57:01.667Z,98908.03
2019-02-20T13:59:27.999Z,98913.21
2019-02-20T14:02:00.996Z,98917.31
2019-02-20T14:04:33.644Z,98911.80
2019-02-20T14:07:05.226Z,98910.97
2019-02-20T14:09:36.783Z,98915.56
2019-02-20T14:12:08.694Z,98911.73
2019-02-20T14:14:40.563Z,98909.91
2019-02-20T14:17:12.207Z,98909.02
2019-02-20T14:19:43.804Z,98910.16
2019-02-20T14:22:15.397Z,98908.22
2019-02-20T14:24:46.968Z,98909.91
2019-02-20T14:27:19.540Z,98907.28
2019-02-20T14:29:51.132Z,98910.46
2019-02-20T14:32:22.764Z,98904.39
2019-02-20T14:34:54.362Z,98904.66
2019-02-20T14:37:25.951Z,98904.91
2019-02-20T14:39:57.812Z,98902.56
2019-02-20T14:42:29.400Z,98899.36
2019-02-20T14:45:01.449Z,98898.66
2019-02-20T14:47:33.522Z,98907.60
2019-02-20T14:50:05.726Z,98907.02
2019-02-20T14:52:38.785Z,98912.45
2019-02-20T14:55:10.791Z,98909.66
2019-02-20T14:57:43.051Z,98916.29
2019-02-20T15:00:14.995Z,98900.94
2019-02-20T15:02:46.730Z,98902.35
2019-02-20T15:05:19.919Z,98898.45
2019-02-20T15:07:51.614Z,98905.19
2019-02-20T15:10:23.209Z,98905.73
2019-02-20T15:12:54.789Z,98901.19
2019-02-20T15:15:26.377Z,98899.62
2019-02-20T15:17:57.982Z,98898.22
2019-02-20T15:20:29.560Z,98898.83
2019-02-20T15:23:01.172Z,98898.28
2019-02-20T15:25:32.871Z,98902.21
2019-02-20T15:28:04.736Z,98894.55
2019-02-20T15:30:39.468Z,98893.00
2019-02-20T15:33:11.152Z,98890.38
2019-02-20T15:35:42.751Z,98888.37
2019-02-20T15:38:14.640Z,98884.44
2019-02-20T15:40:46.198Z,98884.48
2019-02-20T15:43:17.783Z,98885.85
2019-02-20T15:45:49.489Z,98881.34
2019-02-20T15:48:23.290Z,98884.77
2019-02-20T15:50:54.486Z,98879.69
2019-02-20T15:53:26.085Z,98881.74
2019-02-20T15:56:00.743Z,98876.50
2019-02-20T15:58:32.485Z,98880.72
2019-02-20T16:01:05.737Z,98880.61
2019-02-20T16:03:37.481Z,98885.27
2019-02-20T16:06:09.114Z,98879.78
2019-02-20T16:08:40.734Z,98885.12
2019-02-20T16:11:12.720Z,98887.47
2019-02-20T16:13:44.368Z,98881.59
2019-02-20T16:16:16.028Z,98882.55
2019-02-20T16:18:47.620Z,98883.80
2019-02-20T16:21:19.186Z,98889.63
2019-02-20T16:23:50.827Z,98891.12
2019-02-20T16:26:25.491Z,98887.33
2019-02-20T16:28:57.056Z,98886.86
2019-02-20T16:31:31.489Z,98894.99
2019-02-20T16:34:03.375Z,98891.45
2019-02-20T16:36:35.054Z,98890.56
2019-02-20T16:39:07.421Z,98897.48
2019-02-20T16:41:39.151Z,98889.06
2019-02-20T16:44:10.766Z,98892.83
2019-02-20T16:46:42.319Z,98899.91
2019-02-20T16:49:13.929Z,98900.19
2019-02-20T16:51:45.512Z,98902.35
2019-02-20T16:54:17.094Z,98903.84
2019-02-20T16:56:48.641Z,98907.61
2019-02-20T16:59:20.238Z,98909.38
2019-02-20T17:01:53.114Z,98914.12
2019-02-20T17:04:24.974Z,98917.48
2019-02-20T17:06:56.607Z,98916.16
2019-02-20T17:09:28.224Z,98915.60
2019-02-20T17:12:01.395Z,98911.66
2019-02-20T17:14:33.214Z,98919.33
2019-02-20T17:17:05.005Z,98924.35
2019-02-20T17:19:38.167Z,98921.74
2019-02-20T17:22:09.873Z,98930.62
2019-02-20T17:24:41.514Z,98930.80
2019-02-20T17:27:13.094Z,98939.16
2019-02-20T17:29:44.715Z,98934.07
2019-02-20T17:32:16.340Z,98937.59
2019-02-20T17:34:47.942Z,98942.69
2019-02-20T17:37:21.190Z,98944.42
2019-02-20T17:39:53.829Z,98939.19
2019-02-20T17:42:25.454Z,98944.74
2019-02-20T17:44:57.020Z,98939.95
2019-02-20T17:47:29.686Z,98942.42
2019-02-20T17:50:02.336Z,98945.75
2019-02-20T17:52:34.062Z,98947.78
2019-02-20T17:55:06.086Z,98949.78
2019-02-20T17:57:37.757Z,98954.80
2019-02-20T18:00:11.661Z,98962.23
2019-02-20T18:02:43.431Z,98960.12
2019-02-20T18:05:15.122Z,98955.20
2019-02-20T18:07:51.477Z,98965.72
2019-02-20T18:10:20.016Z,98961.55
2019-02-20T18:12:53.108Z,98965.09
2019-02-20T18:15:24.687Z,98965.30
2019-02-20T18:17:56.285Z,98961.62
2019-02-20T18:20:27.908Z,98963.56
2019-02-20T18:22:59.990Z,98965.77
2019-02-20T18:25:31.562Z,98970.77
2019-02-20T18:28:03.293Z,98970.08
2019-02-20T18:30:36.064Z,98973.23
2019-02-20T18:33:07.680Z,98967.17
2019-02-20T18:35:39.417Z,98972.45
2019-02-20T18:38:11.051Z,98975.28
2019-02-20T18:40:42.657Z,98971.76
2019-02-20T18:43:14.289Z,98982.14
2019-02-20T18:45:45.984Z,98981.39
2019-02-20T18:48:17.610Z,98980.85
2019-02-20T18:50:49.280Z,98981.44
2019-02-20T18:53:21.018Z,98986.02
2019-02-20T18:55:52.628Z,98987.80
2019-02-20T18:58:33.500Z,98986.02
2019-02-20T19:00:57.607Z,98987.00
2019-02-20T19:03:29.268Z,98987.14
2019-02-20T19:06:01.113Z,98990.66
2019-02-20T19:08:40.321Z,98984.30
2019-02-20T19:11:38.331Z,98983.61
2019-02-20T19:14:23.870Z,98990.32
2019-02-20T19:17:46.305Z,98997.86
2019-02-20T19:21:15.453Z,98995.05
2019-02-20T19:24:41.388Z,99000.45
2019-02-20T19:27:45.648Z,99000.95
2019-02-20T19:31:24.323Z,99009.99
2019-02-20T19:35:06.248Z,99018.13
2019-02-20T19:38:51.497Z,99017.77
2019-02-20T19:42:18.663Z,99022.84
2019-02-20T19:45:53.238Z,99020.55
2019-02-20T19:49:16.033Z,99023.67
2019-02-20T19:53:00.334Z,99024.73
2019-02-20T19:56:17.787Z,99029.86
2019-02-20T19:59:28.780Z,99030.12
2019-02-20T20:03:06.738Z,99037.02
2019-02-20T20:06:25.999Z,99042.00
2019-02-20T20:10:06.882Z,99038.37
2019-02-20T20:13:26.425Z,99041.03
2019-02-20T20:17:01.781Z,99040.00
2019-02-20T20:20:35.693Z,99044.03
2019-02-20T20:24:25.606Z,99039.73
2019-02-20T20:28:01.712Z,99046.05
2019-02-20T20:31:36.944Z,99056.92
2019-02-20T20:35:03.489Z,99057.98
2019-02-20T20:38:08.625Z,99058.23
2019-02-20T20:41:47.571Z,99054.03
2019-02-20T20:45:23.415Z,99056.38
2019-02-20T20:48:55.494Z,99065.00
2019-02-20T20:52:27.328Z,99065.41
2019-02-20T20:55:35.949Z,99062.28
2019-02-20T20:58:46.823Z,99056.63
2019-02-20T21:01:58.533Z,99059.23
2019-02-20T21:05:39.379Z,99059.69
2019-02-20T21:08:52.701Z,99058.92
2019-02-20T21:13:04.150Z,99064.88
2019-02-20T21:16:31.268Z,99063.98
2019-02-20T21:19:40.923Z,99070.07
2019-02-20T21:23:19.903Z,99070.84
2019-02-20T21:26:53.984Z,99073.22
2019-02-20T21:30:14.852Z,99067.84
2019-02-20T21:34:03.322Z,99075.39
2019-02-20T21:36:53.047Z,99067.33
2019-02-20T21:39:59.285Z,99068.87
2019-02-20T21:43:26.616Z,99070.75
2019-02-20T21:46:48.620Z,99068.80
2019-02-20T21:50:28.043Z,99072.34
2019-02-20T21:53:41.292Z,99066.20
2019-02-20T21:56:42.372Z,99063.30
2019-02-20T22:00:15.818Z,99064.89
2019-02-20T22:03:49.914Z,99075.59
2019-02-20T22:06:56.767Z,99074.16
2019-02-20T22:09:58.141Z,99079.09
2019-02-20T22:13:26.131Z,99077.19
2019-02-20T22:16:54.633Z,99079.48
2019-02-20T22:20:27.184Z,99081.78
2019-02-20T22:23:56.804Z,99084.53
2019-02-20T22:27:23.479Z,99087.91
2019-02-20T22:31:05.406Z,99084.23
2019-02-20T22:34:16.547Z,99089.15
2019-02-20T22:37:58.190Z,99084.45
2019-02-20T22:41:40.542Z,99085.28
2019-02-20T22:45:02.146Z,99085.28
2019-02-20T22:48:29.712Z,99083.41
2019-02-20T22:52:08.955Z,99078.81
2019-02-20T22:56:01.925Z,99085.39
2019-02-20T22:58:55.536Z,99084.44
2019-02-20T23:02:43.838Z,99084.14
2019-02-20T23:06:10.979Z,99088.13
2019-02-20T23:09:12.909Z,99083.56
2019-02-20T23:12:06.056Z,99092.45
2019-02-20T23:15:08.703Z,99095.41
2019-02-20T23:17:40.281Z,99092.56
2019-02-20T23:20:13.179Z,99094.83
2019-02-20T23:22:44.761Z,99096.17
2019-02-20T23:25:16.369Z,99096.35
2019-02-20T23:27:47.962Z,99099.46
2019-02-20T23:30:19.603Z,99104.30
2019-02-20T23:32:56.623Z,99103.89
2019-02-20T23:35:24.425Z,99098.77
2019-02-20T23:37:55.999Z,99105.33
2019-02-20T23:40:27.802Z,99102.89
2019-02-20T23:42:59.625Z,99102.48
2019-02-20T23:45:31.169Z,99105.98
2019-02-20T23:48:02.733Z,99105.16
2019-02-20T23:50:34.310Z,99109.27
2019-02-20T23:53:06.456Z,99106.73
2019-02-20T23:55:37.996Z,99109.91
2019-02-20T23:58:09.846Z,99108.71
